Time;durP1;ratioP1;P1;durP2;ratioP2;P2;SDS_P1;SDS_P2;PMS_P1;PMS_P2;Temp;Humidity;BMP_temperature;BMP_pressure;BME280_temperature;BME280_humidity;BME280_pressure;Samples;Min_cycle;Max_cycle;Signal;HPM_P1;HPM_P2
2022/01/14 00:02:06;;;;;;;41.60;22.00;;;;;;;3.12;86.02;100576.30;103574;1300;24324;-26
2022/01/14 00:04:32;;;;;;;25.00;10.00;;;;;;;3.09;86.17;100563.84;103617;1300;24186;-29
2022/01/14 00:06:58;;;;;;;41.00;20.10;;;;;;;3.12;86.24;100555.63;103565;1300;24253;-26
2022/01/14 00:09:24;;;;;;;29.00;15.90;;;;;;;3.57;83.99;100545.30;103437;1300;24292;-26
2022/01/14 00:11:54;;;;;;;21.50;10.50;;;;;;;3.28;84.78;100537.01;103483;1300;24267;-26
2022/01/14 00:14:25;;;;;;;24.00;11.90;;;;;;;3.07;86.33;100537.25;103547;1300;23945;-29
2022/01/14 00:16:51;;;;;;;26.50;17.70;;;;;;;3.21;85.60;100526.80;103571;1300;24214;-26
2022/01/14 00:19:17;;;;;;;43.40;24.10;;;;;;;3.28;85.06;100527.14;103549;1300;24151;-29
2022/01/14 00:21:45;;;;;;;28.30;17.00;;;;;;;3.58;84.14;100518.36;103530;1302;25467;-28
2022/01/14 00:31:38;;;;;;;16.20;8.60;;;;;;;3.33;84.90;100528.30;103575;1300;24454;-26
2022/01/14 00:32:01;;;;;;;40.00;24.00;;;;;;;3.07;86.26;100531.93;103563;1301;22641;-29
2022/01/14 00:34:27;;;;;;;32.90;19.30;;;;;;;3.13;86.47;100526.38;103548;1302;22866;-25
2022/01/14 00:36:53;;;;;;;24.20;13.10;;;;;;;3.18;85.91;100533.58;103510;1302;24429;-26
2022/01/14 00:39:19;;;;;;;32.50;18.90;;;;;;;2.81;87.64;100532.39;103507;1302;24278;-26
2022/01/14 00:41:45;;;;;;;32.40;13.50;;;;;;;2.72;88.55;100533.77;103561;1302;22823;-26
2022/01/14 00:44:14;;;;;;;21.20;10.60;;;;;;;3.02;86.88;100537.28;103563;1302;24425;-29
2022/01/14 00:46:41;;;;;;;38.30;24.10;;;;;;;2.93;87.26;100541.16;103552;1301;24183;-29
2022/01/14 00:49:06;;;;;;;28.10;14.20;;;;;;;2.94;87.69;100536.56;103513;1302;22525;-29
2022/01/14 00:51:34;;;;;;;29.50;19.90;;;;;;;2.93;87.52;100544.03;103483;1300;24258;-29
2022/01/14 00:54:00;;;;;;;23.70;12.90;;;;;;;2.86;87.60;100542.48;103625;1300;24200;-26
2022/01/14 00:56:33;;;;;;;25.90;8.10;;;;;;;2.88;87.79;100539.66;103539;1300;24268;-26
2022/01/14 01:01:28;;;;;;;34.90;14.70;;;;;;;3.30;86.05;100537.08;103545;1300;22506;-29
2022/01/14 01:03:54;;;;;;;24.30;15.60;;;;;;;3.03;86.80;100539.17;103545;1301;24427;-25
2022/01/14 01:06:20;;;;;;;25.00;14.30;;;;;;;3.09;86.79;100532.70;103529;1300;24306;-29
2022/01/14 01:08:48;;;;;;;24.90;13.40;;;;;;;2.92;87.40;100540.02;103531;1300;24320;-26
2022/01/14 01:11:14;;;;;;;22.80;11.10;;;;;;;2.95;87.50;100536.06;103521;1300;24242;-29
2022/01/14 01:13:48;;;;;;;28.30;12.50;;;;;;;2.97;87.20;100538.77;103499;1302;24430;-31
2022/01/14 01:16:14;;;;;;;20.40;10.70;;;;;;;2.91;87.50;100534.47;103549;1301;22510;-28
2022/01/14 01:18:39;;;;;;;17.00;8.80;;;;;;;3.04;87.06;100535.40;103536;1300;24267;-28
2022/01/14 01:21:05;;;;;;;25.40;16.50;;;;;;;2.81;88.00;100529.35;103596;1300;24293;-30
2022/01/14 01:23:31;;;;;;;14.10;8.90;;;;;;;3.00;87.34;100515.03;103563;1300;24211;-29
2022/01/14 01:26:09;;;;;;;28.50;17.10;;;;;;;3.04;87.08;100518.58;103575;1300;24229;-27
2022/01/14 01:28:42;;;;;;;24.10;15.70;;;;;;;3.15;86.47;100521.20;103630;1300;24167;-25
2022/01/14 01:31:35;;;;;;;33.50;17.90;;;;;;;2.83;87.45;100523.40;103604;1300;24351;-32
2022/01/14 01:33:54;;;;;;;24.30;12.10;;;;;;;2.69;88.57;100521.11;103544;1300;24217;-31
2022/01/14 01:36:20;;;;;;;15.00;8.10;;;;;;;2.82;88.21;100508.80;103584;1300;24349;-29
2022/01/14 01:38:46;;;;;;;19.20;12.70;;;;;;;2.69;89.06;100514.91;103445;1300;24298;-30
2022/01/14 01:41:12;;;;;;;23.60;13.80;;;;;;;2.94;87.73;100517.91;103584;1299;24201;-30
2022/01/14 01:43:39;;;;;;;29.20;15.60;;;;;;;3.06;86.85;100513.77;103609;1300;24799;-29
2022/01/14 01:46:05;;;;;;;21.30;9.30;;;;;;;2.86;87.69;100507.42;103592;1300;24284;-29
2022/01/14 01:48:31;;;;;;;23.60;12.90;;;;;;;2.83;88.25;100507.62;103498;1299;24170;-29
2022/01/14 01:50:58;;;;;;;45.70;15.50;;;;;;;2.90;87.98;100509.30;103518;1300;24328;-29
2022/01/14 01:53:24;;;;;;;26.00;16.70;;;;;;;2.63;88.78;100510.45;103583;1300;24210;-25
2022/01/14 01:55:49;;;;;;;17.00;8.60;;;;;;;2.87;88.32;100502.36;103612;1300;24240;-31
2022/01/14 01:58:15;;;;;;;28.10;15.00;;;;;;;2.76;88.77;100494.20;103601;1300;22505;-28
2022/01/14 02:00:42;;;;;;;18.50;10.70;;;;;;;3.19;86.50;100506.41;103524;1303;24302;-27
2022/01/14 02:03:08;;;;;;;20.00;10.80;;;;;;;3.04;86.81;100503.52;103520;1302;24309;-27
2022/01/14 02:05:34;;;;;;;26.20;14.90;;;;;;;2.81;87.86;100505.83;103667;1300;24210;-29
2022/01/14 02:08:00;;;;;;;15.00;6.90;;;;;;;2.83;88.11;100506.61;103589;1300;24176;-28
2022/01/14 02:10:26;;;;;;;23.80;14.00;;;;;;;2.68;88.76;100510.04;103636;1300;24305;-29
2022/01/14 02:12:53;;;;;;;28.00;11.80;;;;;;;2.70;88.61;100510.97;103497;1300;24284;-29
2022/01/14 02:22:49;;;;;;;23.90;13.30;;;;;;;2.59;88.89;100492.77;103538;1300;22506;-29
2022/01/14 02:25:16;;;;;;;17.70;10.00;;;;;;;2.82;88.18;100491.27;103599;1301;22605;-26
2022/01/14 02:27:43;;;;;;;20.20;10.90;;;;;;;2.96;87.35;100488.40;103554;1300;24260;-26
2022/01/14 02:30:09;;;;;;;19.40;12.30;;;;;;;2.97;86.87;100482.33;103519;1300;24358;-26
2022/01/14 02:32:36;;;;;;;26.20;18.30;;;;;;;2.61;88.07;100476.52;103554;1300;25373;-29
2022/01/14 02:35:02;;;;;;;24.00;11.10;;;;;;;2.60;88.70;100497.03;103512;1302;24221;-26
2022/01/14 02:37:28;;;;;;;32.40;15.30;;;;;;;2.56;88.75;100489.63;103581;1300;24289;-25
2022/01/14 02:39:54;;;;;;;19.80;11.20;;;;;;;2.62;88.49;100477.48;103589;1302;24230;-29
2022/01/14 02:42:21;;;;;;;18.40;11.10;;;;;;;2.52;88.74;100482.65;103543;1300;24216;-24
2022/01/14 02:44:48;;;;;;;16.20;12.20;;;;;;;2.59;87.94;100476.95;103588;1302;24227;-30
2022/01/14 02:47:17;;;;;;;16.10;9.00;;;;;;;2.43;87.91;100470.56;103587;1300;24345;-28
2022/01/14 02:49:43;;;;;;;11.90;7.80;;;;;;;2.44;87.58;100480.79;103582;1302;24260;-29
2022/01/14 02:52:09;;;;;;;22.80;15.50;;;;;;;2.52;87.64;100479.84;103540;1302;24174;-28
2022/01/14 02:57:04;;;;;;;10.90;5.40;;;;;;;2.33;87.75;100475.48;103597;1302;24202;-29
2022/01/14 02:59:30;;;;;;;16.80;13.00;;;;;;;2.62;86.80;100482.23;103557;1300;24216;-28
2022/01/14 03:01:56;;;;;;;13.90;8.50;;;;;;;2.45;87.29;100487.65;103541;1300;24355;-25
2022/01/14 03:04:22;;;;;;;15.20;9.60;;;;;;;2.39;87.59;100480.44;103528;1302;24226;-27
2022/01/14 03:06:48;;;;;;;18.40;11.30;;;;;;;2.22;88.19;100470.95;103532;1300;22806;-29
2022/01/14 03:09:14;;;;;;;14.30;8.60;;;;;;;2.19;88.57;100459.02;103549;1301;24244;-26
2022/01/14 03:11:42;;;;;;;17.40;9.10;;;;;;;2.20;88.42;100466.70;103568;1300;24775;-26
2022/01/14 03:14:09;;;;;;;16.90;12.10;;;;;;;2.43;87.61;100460.15;103496;1301;24261;-28
2022/01/14 03:16:39;;;;;;;28.00;18.30;;;;;;;2.88;85.66;100465.52;103578;1302;24189;-29
2022/01/14 03:19:10;;;;;;;14.50;9.50;;;;;;;2.75;85.96;100459.83;103542;1300;24210;-26
2022/01/14 03:21:40;;;;;;;25.60;17.20;;;;;;;3.02;84.66;100462.13;103624;1300;23128;-28
2022/01/14 03:26:35;;;;;;;29.60;10.30;;;;;;;2.68;86.41;100456.84;103612;1300;24222;-29
2022/01/14 03:29:03;;;;;;;29.60;18.60;;;;;;;2.54;86.95;100458.29;103628;1300;24311;-26
2022/01/14 03:31:29;;;;;;;26.60;18.00;;;;;;;2.82;86.18;100456.61;103619;1300;24254;-26
2022/01/14 03:33:54;;;;;;;16.50;10.10;;;;;;;2.73;86.46;100452.91;103549;1299;24240;-26
2022/01/14 03:36:20;;;;;;;21.10;15.20;;;;;;;2.42;87.30;100465.41;103575;1300;24418;-31
2022/01/14 03:38:46;;;;;;;30.20;16.30;;;;;;;2.41;88.21;100446.88;103614;1300;24260;-27
2022/01/14 03:41:12;;;;;;;28.50;16.10;;;;;;;2.55;87.54;100451.09;103602;1300;24292;-29
2022/01/14 03:43:40;;;;;;;17.00;8.50;;;;;;;2.70;86.57;100451.71;103679;1298;24359;-26
2022/01/14 03:46:06;;;;;;;19.90;11.80;;;;;;;2.57;87.46;100452.52;103610;1300;23923;-30
2022/01/14 03:48:32;;;;;;;27.70;18.90;;;;;;;2.87;86.23;100452.73;103565;1300;24336;-28
2022/01/14 03:50:58;;;;;;;22.00;10.70;;;;;;;2.60;86.82;100449.15;103633;1300;24262;-28
2022/01/14 03:53:24;;;;;;;23.70;9.70;;;;;;;2.42;87.94;100455.69;103571;1300;22870;-25
2022/01/14 03:55:50;;;;;;;23.80;16.30;;;;;;;2.65;87.42;100447.19;103643;1303;24348;-29
2022/01/14 03:58:16;;;;;;;27.60;14.00;;;;;;;2.77;86.30;100436.68;103587;1300;24234;-25
2022/01/14 04:00:42;;;;;;;17.30;9.50;;;;;;;2.62;86.98;100427.22;103619;1300;22502;-26
2022/01/14 04:03:08;;;;;;;25.60;14.30;;;;;;;2.28;88.98;100422.43;103668;1300;24367;-29
2022/01/14 04:05:34;;;;;;;20.90;12.10;;;;;;;2.52;87.94;100427.84;103599;1300;24669;-29
2022/01/14 04:08:00;;;;;;;18.10;8.30;;;;;;;2.69;86.83;100413.98;103593;1300;24255;-26
2022/01/14 04:10:27;;;;;;;34.40;17.80;;;;;;;2.57;87.41;100397.19;103236;1299;531618;-26
2022/01/14 04:17:51;;;;;;;36.70;18.20;;;;;;;2.44;88.40;100389.95;103604;1300;23970;-25
2022/01/14 04:20:17;;;;;;;37.70;21.30;;;;;;;2.57;88.00;100379.73;103547;1300;24329;-27
2022/01/14 04:22:43;;;;;;;33.30;18.70;;;;;;;2.86;87.28;100378.13;103518;1301;24185;-30
2022/01/14 04:25:09;;;;;;;15.60;8.70;;;;;;;2.65;87.66;100375.93;103529;1300;24268;-29
2022/01/14 04:27:35;;;;;;;31.70;13.70;;;;;;;2.80;87.71;100370.08;103626;1300;24258;-29
2022/01/14 04:30:02;;;;;;;37.90;20.20;;;;;;;2.54;87.93;100369.16;103541;1301;24264;-26
2022/01/14 04:32:28;;;;;;;24.00;12.60;;;;;;;2.52;88.88;100361.38;103534;1302;24113;-26
2022/01/14 04:34:54;;;;;;;22.80;14.30;;;;;;;2.63;87.96;100357.66;103601;1300;24238;-26
2022/01/14 04:37:22;;;;;;;36.40;19.00;;;;;;;2.47;89.43;100355.41;103524;1300;24307;-28
2022/01/14 04:39:47;;;;;;;19.10;10.30;;;;;;;2.79;88.08;100348.60;103528;1300;24316;-26
2022/01/14 04:42:13;;;;;;;24.10;13.30;;;;;;;2.69;87.81;100347.52;103497;1301;24356;-26
2022/01/14 04:44:39;;;;;;;26.10;15.10;;;;;;;2.55;89.08;100353.50;103515;1300;24274;-28
2022/01/14 04:49:34;;;;;;;29.90;16.10;;;;;;;2.60;88.55;100348.03;103525;1300;22512;-25
2022/01/14 04:52:00;;;;;;;36.80;22.20;;;;;;;2.27;90.08;100347.27;103439;1300;24176;-31
2022/01/14 04:54:26;;;;;;;32.10;22.30;;;;;;;2.70;88.72;100342.13;103521;1302;24336;-31
2022/01/14 04:56:52;;;;;;;24.90;11.20;;;;;;;2.64;88.48;100326.27;103496;1302;24257;-29
2022/01/14 04:59:18;;;;;;;22.90;14.70;;;;;;;2.53;89.32;100320.27;103548;1300;22719;-29
2022/01/14 05:01:44;;;;;;;21.40;9.90;;;;;;;2.68;88.77;100317.84;103502;1302;24221;-28
2022/01/14 05:04:10;;;;;;;34.90;24.20;;;;;;;2.69;88.91;100328.89;103555;1300;24387;-29
2022/01/14 05:06:36;;;;;;;28.20;17.00;;;;;;;2.73;88.35;100323.66;103572;1302;24198;-25
2022/01/14 05:09:15;;;;;;;25.00;9.50;;;;;;;2.53;89.32;100308.60;103589;1300;24278;-25
2022/01/14 05:11:51;;;;;;;30.80;11.40;;;;;;;2.61;88.81;100318.43;103553;1300;22802;-29
2022/01/14 05:14:17;;;;;;;42.80;25.20;;;;;;;2.54;89.32;100316.52;103517;1301;24239;-29
2022/01/14 05:16:42;;;;;;;29.90;19.50;;;;;;;2.94;87.59;100314.16;103537;1300;24244;-26
2022/01/14 05:19:08;;;;;;;46.20;24.60;;;;;;;2.50;88.86;100321.10;103512;1302;24419;-28
2022/01/14 05:21:34;;;;;;;31.70;19.60;;;;;;;2.40;89.85;100310.86;103533;1300;22512;-29
2022/01/14 05:24:00;;;;;;;27.80;17.00;;;;;;;2.69;88.76;100306.77;103499;1300;24388;-29
2022/01/14 05:26:26;;;;;;;35.50;17.10;;;;;;;2.52;89.01;100312.96;103544;1302;24217;-29
2022/01/14 05:28:52;;;;;;;44.70;26.60;;;;;;;2.58;88.91;100315.86;103531;1300;24265;-29
2022/01/14 05:31:18;;;;;;;33.90;16.70;;;;;;;2.72;88.16;100324.77;103513;1302;24244;-31
2022/01/14 05:33:46;;;;;;;44.80;28.10;;;;;;;2.51;89.04;100337.57;103526;1300;24186;-28
2022/01/14 05:36:12;;;;;;;28.30;14.90;;;;;;;2.69;88.48;100332.61;103487;1303;22517;-31
2022/01/14 05:38:38;;;;;;;54.90;29.40;;;;;;;2.40;89.61;100329.80;103524;1301;24179;-26
2022/01/14 05:41:04;;;;;;;39.80;19.20;;;;;;;2.50;89.44;100323.36;103582;1300;24244;-31
2022/01/14 05:43:30;;;;;;;26.10;15.50;;;;;;;2.45;89.71;100328.39;103604;1301;22761;-29
2022/01/14 05:45:56;;;;;;;35.70;22.20;;;;;;;2.59;89.39;100335.19;103524;1300;24189;-29
2022/01/14 05:48:21;;;;;;;39.60;21.60;;;;;;;2.47;89.61;100329.39;103526;1302;24176;-27
2022/01/14 05:50:47;;;;;;;42.90;19.80;;;;;;;2.18;90.61;100332.60;103579;1300;24320;-31
2022/01/14 05:53:13;;;;;;;38.80;20.30;;;;;;;2.15;91.49;100343.23;103540;1300;24305;-31
2022/01/14 05:55:39;;;;;;;52.40;25.50;;;;;;;2.26;91.02;100347.51;103523;1300;24211;-30
2022/01/14 05:58:05;;;;;;;39.90;15.30;;;;;;;2.23;91.11;100336.77;103516;1302;24327;-29
2022/01/14 06:00:31;;;;;;;62.20;29.00;;;;;;;2.28;90.93;100331.77;103524;1300;24322;-29
2022/01/14 06:02:57;;;;;;;47.40;25.50;;;;;;;2.32;90.35;100332.58;103550;1300;24213;-29
2022/01/14 06:05:23;;;;;;;45.60;24.80;;;;;;;1.98;91.69;100335.91;103550;1300;24236;-29
2022/01/14 06:07:49;;;;;;;43.70;17.10;;;;;;;2.14;91.50;100330.57;103473;1301;23996;-28
2022/01/14 06:10:15;;;;;;;39.20;24.10;;;;;;;2.10;91.66;100328.59;103524;1300;22641;-28
2022/01/14 06:12:41;;;;;;;43.00;18.50;;;;;;;2.22;90.96;100320.29;103495;1300;22729;-28
2022/01/14 06:15:07;;;;;;;26.10;11.70;;;;;;;2.06;91.71;100318.90;103642;1300;24351;-26
2022/01/14 06:17:33;;;;;;;35.60;19.90;;;;;;;2.23;90.94;100314.18;103601;1300;24306;-29
2022/01/14 06:19:58;;;;;;;50.50;25.50;;;;;;;2.21;90.87;100320.03;103569;1300;24186;-26
2022/01/14 06:22:24;;;;;;;43.80;23.10;;;;;;;2.16;91.14;100315.42;103510;1300;24457;-27
2022/01/14 06:24:50;;;;;;;26.40;12.60;;;;;;;2.21;91.19;100299.85;103544;1302;24257;-26
2022/01/14 06:27:16;;;;;;;24.60;14.00;;;;;;;1.85;92.46;100304.21;103533;1298;24224;-29
2022/01/14 06:29:42;;;;;;;66.80;26.50;;;;;;;2.10;92.09;100307.73;103521;1302;22618;-28
2022/01/14 06:32:09;;;;;;;49.50;29.50;;;;;;;2.16;91.52;100309.10;103610;1300;24195;-26
2022/01/14 06:34:35;;;;;;;27.00;13.00;;;;;;;2.25;91.03;100303.59;103647;1300;24425;-31
2022/01/14 06:37:02;;;;;;;48.80;33.70;;;;;;;2.00;91.77;100314.38;103554;1300;24239;-26
2022/01/14 06:39:28;;;;;;;25.50;16.30;;;;;;;2.26;90.99;100307.55;103509;1300;24197;-25
2022/01/14 06:41:54;;;;;;;71.10;28.80;;;;;;;2.20;91.14;100304.52;103559;1300;24229;-31
2022/01/14 06:44:20;;;;;;;62.10;28.40;;;;;;;2.00;92.00;100298.12;103595;1302;24376;-31
2022/01/14 06:46:45;;;;;;;49.00;25.00;;;;;;;2.05;91.94;100294.02;103566;1300;24220;-31
2022/01/14 06:49:11;;;;;;;46.80;24.20;;;;;;;2.23;91.89;100288.16;103521;1300;24316;-26
2022/01/14 06:51:38;;;;;;;44.80;22.80;;;;;;;2.20;91.35;100287.72;103606;1300;24302;-26
2022/01/14 06:54:04;;;;;;;32.60;19.20;;;;;;;2.17;91.56;100285.17;103561;1300;24260;-30
2022/01/14 06:56:30;;;;;;;38.50;22.00;;;;;;;1.89;92.84;100283.63;103561;1300;24220;-26
2022/01/14 06:58:56;;;;;;;46.00;25.60;;;;;;;1.99;93.24;100290.06;103536;1300;22563;-25
2022/01/14 07:01:22;;;;;;;51.00;22.40;;;;;;;2.19;92.31;100283.45;103511;1300;22522;-26
2022/01/14 07:03:49;;;;;;;47.80;26.00;;;;;;;2.25;91.35;100286.30;103615;1300;22695;-29
2022/01/14 07:06:15;;;;;;;39.10;18.80;;;;;;;2.45;91.00;100292.30;103549;1300;24265;-25
2022/01/14 07:08:41;;;;;;;36.00;21.80;;;;;;;2.36;91.08;100295.99;103495;1300;24221;-26
2022/01/14 07:11:07;;;;;;;27.20;17.60;;;;;;;2.16;92.17;100287.19;103577;1300;24223;-29
2022/01/14 07:13:33;;;;;;;48.90;21.40;;;;;;;1.84;93.68;100281.17;103548;1300;24222;-26
2022/01/14 07:15:59;;;;;;;52.90;28.40;;;;;;;1.98;93.83;100277.13;103508;1300;24366;-29
2022/01/14 07:18:25;;;;;;;46.40;25.30;;;;;;;2.40;91.93;100273.93;103561;1300;24206;-26
2022/01/14 07:20:51;;;;;;;35.30;18.80;;;;;;;2.36;91.31;100259.66;103490;1300;24303;-29
2022/01/14 07:23:17;;;;;;;26.20;13.40;;;;;;;2.31;91.92;100253.16;103527;1300;24247;-26
2022/01/14 07:25:42;;;;;;;39.30;25.40;;;;;;;2.22;92.38;100255.40;103500;1300;24219;-25
2022/01/14 07:28:08;;;;;;;32.80;13.70;;;;;;;2.24;92.54;100255.41;103574;1301;24338;-27
2022/01/14 07:30:34;;;;;;;26.00;12.50;;;;;;;2.29;92.10;100247.95;103584;1300;24398;-26
2022/01/14 07:33:01;;;;;;;33.70;18.70;;;;;;;2.21;92.81;100254.80;103509;1300;24260;-30
2022/01/14 07:35:27;;;;;;;29.60;18.90;;;;;;;2.23;92.74;100257.08;103600;1300;24372;-25
2022/01/14 07:37:53;;;;;;;39.10;22.00;;;;;;;2.22;92.98;100248.67;103555;1300;24224;-29
2022/01/14 07:40:19;;;;;;;40.70;17.40;;;;;;;2.25;93.18;100248.82;103496;1300;24227;-28
2022/01/14 07:42:45;;;;;;;40.30;21.30;;;;;;;2.15;93.43;100241.52;103445;1300;24341;-28
2022/01/14 07:45:11;;;;;;;37.30;22.80;;;;;;;2.02;94.20;100245.32;103494;1300;24174;-25
2022/01/14 07:47:37;;;;;;;48.80;18.20;;;;;;;2.13;94.21;100246.63;103486;1300;24213;-26
2022/01/14 07:50:03;;;;;;;44.70;23.50;;;;;;;1.97;94.94;100247.34;103590;1300;24186;-29
2022/01/14 07:52:29;;;;;;;24.90;14.00;;;;;;;2.30;93.67;100258.30;103586;1300;22523;-27
2022/01/14 07:54:55;;;;;;;35.70;18.10;;;;;;;2.20;93.81;100255.02;103551;1300;22646;-34
2022/01/14 07:57:21;;;;;;;32.30;18.20;;;;;;;2.14;93.88;100261.36;103492;1300;24359;-26
2022/01/14 07:59:47;;;;;;;22.50;13.10;;;;;;;2.14;94.34;100254.98;103483;1300;24414;-26
2022/01/14 08:02:13;;;;;;;30.80;17.60;;;;;;;2.41;93.14;100239.05;103519;1300;24185;-26
2022/01/14 08:04:40;;;;;;;31.70;16.20;;;;;;;2.30;93.10;100255.52;103543;1300;24948;-29
2022/01/14 08:09:39;;;;;;;39.60;20.70;;;;;;;2.31;93.35;100240.03;103556;1300;24309;-26
2022/01/14 08:12:06;;;;;;;42.20;24.40;;;;;;;2.24;93.94;100239.72;103574;1300;24275;-26
2022/01/14 08:14:33;;;;;;;39.80;26.00;;;;;;;2.30;93.47;100227.75;103580;1300;26189;-25
2022/01/14 08:16:59;;;;;;;16.20;9.90;;;;;;;2.51;93.30;100219.13;103570;1300;22574;-29
2022/01/14 08:19:25;;;;;;;38.00;21.10;;;;;;;2.40;92.82;100213.71;103580;1300;24243;-31
2022/01/14 08:21:51;;;;;;;34.80;17.90;;;;;;;2.27;94.06;100204.70;103610;1300;24227;-25
2022/01/14 08:24:17;;;;;;;34.20;18.20;;;;;;;2.37;93.57;100222.39;103477;1302;24342;-28
2022/01/14 08:26:43;;;;;;;32.70;19.90;;;;;;;2.28;94.04;100205.09;103629;1300;24280;-24
2022/01/14 08:29:08;;;;;;;37.40;25.00;;;;;;;2.23;94.84;100201.61;103643;1300;24288;-31
2022/01/14 08:31:34;;;;;;;46.50;26.70;;;;;;;2.48;93.65;100198.67;103592;1300;24132;-29
2022/01/14 08:34:02;;;;;;;27.80;15.50;;;;;;;2.43;93.62;100193.79;103588;1300;24220;-27
2022/01/14 08:36:30;;;;;;;34.90;24.90;;;;;;;2.09;95.06;100191.11;103616;1300;24185;-25
2022/01/14 08:38:56;;;;;;;28.90;17.30;;;;;;;2.17;95.72;100198.38;103638;1299;22497;-25
2022/01/14 08:41:28;;;;;;;41.80;21.80;;;;;;;2.22;95.52;100187.23;103561;1300;22518;-29
2022/01/14 08:43:54;;;;;;;52.10;32.70;;;;;;;2.38;94.83;100181.66;103652;1300;24387;-25
2022/01/14 08:46:20;;;;;;;26.70;13.80;;;;;;;2.30;94.83;100172.05;103698;1300;22813;-28
2022/01/14 08:48:46;;;;;;;41.90;23.00;;;;;;;2.42;94.57;100180.61;103729;1300;24302;-27
2022/01/14 08:51:12;;;;;;;33.20;18.80;;;;;;;2.48;94.24;100178.02;103687;1300;24159;-25
2022/01/14 08:53:38;;;;;;;32.40;17.80;;;;;;;2.44;94.46;100187.23;103687;1299;24222;-25
2022/01/14 08:56:04;;;;;;;33.60;19.20;;;;;;;2.52;94.34;100176.99;103553;1303;22689;-29
2022/01/14 08:58:30;;;;;;;42.40;24.90;;;;;;;2.54;94.07;100190.60;103603;1300;24366;-26
2022/01/14 09:00:56;;;;;;;34.30;21.00;;;;;;;2.55;94.04;100184.35;103603;1300;24191;-25
2022/01/14 09:03:22;;;;;;;79.30;32.70;;;;;;;2.29;95.42;100192.48;103625;1300;24228;-27
2022/01/14 09:05:48;;;;;;;72.40;29.90;;;;;;;2.57;94.96;100186.48;103657;1300;24219;-25
2022/01/14 09:08:14;;;;;;;81.90;30.20;;;;;;;2.38;94.92;100186.42;103610;1300;24253;-29
2022/01/14 09:10:40;;;;;;;123.70;54.80;;;;;;;2.46;94.97;100179.97;103588;1300;24474;-29
2022/01/14 09:13:06;;;;;;;48.60;22.60;;;;;;;2.64;93.99;100178.83;103627;1300;24312;-30
2022/01/14 09:15:32;;;;;;;82.80;37.70;;;;;;;2.59;94.01;100178.67;103781;1300;24352;-30
2022/01/14 09:17:58;;;;;;;104.50;34.00;;;;;;;2.71;93.41;100185.55;103616;1300;24411;-26
2022/01/14 09:23:00;;;;;;;72.50;30.60;;;;;;;2.66;93.92;100198.66;103602;1300;23311;-26
2022/01/14 09:25:26;;;;;;;29.70;13.30;;;;;;;2.91;92.94;100200.48;103492;1300;24295;-30
2022/01/14 09:27:52;;;;;;;44.10;18.70;;;;;;;2.77;93.16;100197.08;103523;1300;24327;-28
2022/01/14 09:30:20;;;;;;;42.20;25.20;;;;;;;2.81;92.87;100204.48;103585;1300;24311;-26
2022/01/14 09:32:46;;;;;;;40.60;24.60;;;;;;;2.88;92.64;100191.70;103522;1302;24215;-26
2022/01/14 09:35:13;;;;;;;55.90;29.20;;;;;;;2.80;92.67;100188.83;103569;1300;22874;-29
2022/01/14 09:37:41;;;;;;;42.80;17.40;;;;;;;2.77;92.76;100188.53;103513;1302;24354;-26
2022/01/14 09:40:07;;;;;;;23.80;14.90;;;;;;;2.62;93.86;100187.30;103580;1302;24257;-26
2022/01/14 09:42:33;;;;;;;44.70;25.10;;;;;;;3.02;92.10;100189.82;103551;1300;24275;-26
2022/01/14 09:44:59;;;;;;;24.50;16.80;;;;;;;3.19;91.24;100183.06;103653;1300;24322;-26
2022/01/14 09:47:25;;;;;;;18.30;10.10;;;;;;;2.91;92.38;100175.77;103542;1300;24226;-31
2022/01/14 09:49:51;;;;;;;16.30;9.30;;;;;;;3.00;92.08;100174.42;103655;1300;22511;-29
2022/01/14 09:52:17;;;;;;;27.80;10.70;;;;;;;3.07;91.68;100172.42;103502;1300;24174;-29
2022/01/14 09:54:43;;;;;;;18.80;12.30;;;;;;;3.01;91.36;100172.38;103575;1300;22515;-31
2022/01/14 09:57:11;;;;;;;22.40;12.80;;;;;;;3.00;91.66;100177.08;103484;1300;24243;-28
2022/01/14 09:59:38;;;;;;;21.70;13.70;;;;;;;3.11;91.66;100169.63;103601;1300;22644;-26
2022/01/14 10:02:04;;;;;;;16.20;12.50;;;;;;;3.20;91.15;100159.86;103466;1302;24284;-29
2022/01/14 10:04:30;;;;;;;23.20;10.20;;;;;;;3.14;91.09;100155.57;103570;1300;24295;-31
2022/01/14 10:06:57;;;;;;;13.40;10.00;;;;;;;3.06;91.86;100147.75;103563;1300;24361;-29
2022/01/14 10:09:30;;;;;;;19.80;10.40;;;;;;;3.18;91.29;100144.05;103579;1300;22617;-26
2022/01/14 10:11:59;;;;;;;19.40;13.20;;;;;;;3.10;92.01;100141.02;103586;1300;25322;-25
2022/01/14 10:14:24;;;;;;;20.70;15.50;;;;;;;3.34;91.11;100139.72;103514;1300;24234;-25
2022/01/14 10:16:53;;;;;;;14.90;7.40;;;;;;;3.08;91.66;100139.10;103514;1300;24174;-25
2022/01/14 10:19:20;;;;;;;21.00;11.30;;;;;;;2.87;93.09;100145.59;103604;1300;24229;-26
2022/01/14 10:21:46;;;;;;;18.50;9.60;;;;;;;3.20;92.30;100130.06;103533;1300;24341;-25
2022/01/14 10:24:13;;;;;;;24.90;12.20;;;;;;;3.30;91.37;100127.13;103579;1300;24375;-30
2022/01/14 10:26:45;;;;;;;24.60;17.30;;;;;;;3.33;91.10;100111.66;103559;1300;24318;-27
2022/01/14 10:29:11;;;;;;;17.70;12.20;;;;;;;3.25;91.67;100116.90;103544;1300;24243;-28
2022/01/14 10:31:37;;;;;;;17.10;9.00;;;;;;;3.31;91.04;100115.13;103516;1300;24311;-25
2022/01/14 10:34:10;;;;;;;19.80;9.10;;;;;;;3.25;91.29;100119.42;103541;1300;24366;-29
2022/01/14 10:36:36;;;;;;;18.90;8.40;;;;;;;3.34;91.13;100116.69;103539;1300;24221;-26
2022/01/14 10:39:22;;;;;;;14.80;8.50;;;;;;;3.31;91.37;100101.87;103554;1302;24370;-26
2022/01/14 10:41:48;;;;;;;23.20;15.70;;;;;;;3.37;91.00;100107.42;103519;1300;22513;-25
2022/01/14 10:44:20;;;;;;;20.30;11.90;;;;;;;3.50;90.26;100100.60;103536;1300;24174;-25
2022/01/14 10:46:46;;;;;;;25.00;17.00;;;;;;;3.34;91.23;100114.06;103556;1299;22627;-27
2022/01/14 10:49:12;;;;;;;28.20;11.30;;;;;;;3.36;90.71;100098.63;103579;1300;24378;-29
2022/01/14 10:51:38;;;;;;;26.80;14.80;;;;;;;3.25;91.20;100110.03;103549;1303;22655;-29
2022/01/14 10:54:05;;;;;;;21.50;12.70;;;;;;;3.29;91.70;100101.38;103518;1300;24364;-29
2022/01/14 10:56:31;;;;;;;28.10;16.50;;;;;;;3.30;91.16;100090.11;103553;1300;22613;-25
2022/01/14 10:58:59;;;;;;;44.80;20.10;;;;;;;3.24;91.52;100096.00;103586;1300;22535;-29
2022/01/14 11:01:25;;;;;;;41.50;23.30;;;;;;;3.28;91.45;100089.42;103533;1300;24216;-26
2022/01/14 11:03:53;;;;;;;47.40;27.60;;;;;;;3.17;91.93;100083.11;103593;1300;24205;-25
2022/01/14 11:06:20;;;;;;;52.50;27.40;;;;;;;3.31;91.49;100077.45;103525;1300;24241;-29
2022/01/14 11:08:46;;;;;;;22.20;9.70;;;;;;;3.64;90.10;100083.42;103539;1300;24205;-27
2022/01/14 11:11:13;;;;;;;40.90;20.00;;;;;;;3.28;91.36;100079.70;103536;1302;24216;-26
2022/01/14 11:13:39;;;;;;;44.90;17.30;;;;;;;3.15;92.39;100077.45;103547;1300;24128;-26
2022/01/14 11:16:05;;;;;;;30.20;18.90;;;;;;;3.18;92.11;100075.07;103553;1300;24223;-31
2022/01/14 11:18:31;;;;;;;49.20;21.00;;;;;;;3.22;91.87;100080.92;103493;1300;24301;-26
2022/01/14 11:23:26;;;;;;;47.70;24.20;;;;;;;3.17;92.27;100067.02;103502;1300;24408;-31
2022/01/14 11:28:30;;;;;;;26.80;17.50;;;;;;;3.22;91.60;100053.98;103443;1300;24378;-29
2022/01/14 11:30:56;;;;;;;25.40;15.80;;;;;;;3.47;90.71;100047.77;103572;1299;24217;-29
2022/01/14 11:33:37;;;;;;;16.40;6.80;;;;;;;3.33;91.62;100043.70;103562;1300;24403;-30
2022/01/14 11:36:06;;;;;;;23.50;15.80;;;;;;;3.22;91.99;100034.02;103534;1302;24297;-26
2022/01/14 11:38:34;;;;;;;13.50;7.80;;;;;;;3.18;92.20;100030.64;103551;1302;24215;-31
2022/01/14 11:41:00;;;;;;;29.50;18.40;;;;;;;3.35;91.62;100036.04;103528;1300;24254;-26
2022/01/14 11:43:33;;;;;;;27.70;18.10;;;;;;;3.24;91.61;100042.85;103495;1300;24463;-29
2022/01/14 11:45:59;;;;;;;29.40;16.60;;;;;;;3.70;90.06;100035.98;103573;1300;25371;-29